Silk Way IL76 at Dubai on Nov 22nd 2021, burst all main tyres on landing

Last Update: November 24, 2021 / 23:59:33 GMT/Zulu time

Bookmark this article
Incident Facts

Date of incident
Nov 22, 2021

Classification
Incident

Flight number
ZP-4723

Aircraft Registration
4K-AZ40

Aircraft Type
Ilyushin Il-76

ICAO Type Designator
IL76

Airport ICAO Code
OMDW

A Silk Way Ilyushin IL-76, registration 4K-AZ40 performing flight ZP-4723 from Kuwait City (Kuwait) to Dubai Al Maktoum (United Arab Emirates), landed on Al Maktoum's runway 12 but came to a stop on the runway with all 16 main tyres blown, the aircraft was disabled.

The airport needed to be closed for 23 hours.

The aircraft is still on the ground in Dubai about 70 hours after landing.

One of the related NOTAMs:
A2947/21 NOTAMN
Q) OMAE/QMRXX/IV/NBO/A/000/999/2455N05510E005
A) OMDW B) 2111220405 C) 2111221100
E) RWY 12/30 NOT AVBL DUE TO DISABLED ACFT.

Metars:
OMDW 220400Z 06005KT 9000 NSC 18/14 Q1017 NOSIG=
OMDW 220300Z 06005KT CAVOK 17/13 Q1017 NOSIG=
OMDW 220200Z 05005KT CAVOK 17/13 Q1016 NOSIG=
OMDW 220100Z 03004KT CAVOK 18/14 Q1016 NOSIG=
OMDW 220000Z 07006KT CAVOK 19/14 Q1016 NOSIG=
OMDW 212300Z 06005KT CAVOK 20/15 Q1016 NOSIG=
OMDW 212200Z 05004KT CAVOK 20/15 Q1016 NOSIG=
Incident Facts

Date of incident
Nov 22, 2021

Classification
Incident

Flight number
ZP-4723

Aircraft Registration
4K-AZ40

Aircraft Type
Ilyushin Il-76

ICAO Type Designator
IL76

Airport ICAO Code
OMDW

This article is published under license from Avherald.com. © of text by Avherald.com.
Article source

You can read 4 more free articles without a subscription.

Subscribe now and continue reading without any limits!

Are you a subscriber?
Login
Subscribe

Read unlimited articles and receive our daily update briefing. Gain better insights into what is happening in commercial aviation safety.

Free newsletter

Want to know more and stay ahead? Get our free weekly newsletter and join 4859 existing subscribers.

By subscribing, you accept our terms and conditions and confirm that you've read our privacy policy.

Send tip

Support AeroInside by sending a small tip amount.

Related articles

Newest articles

Subscribe today

Are you researching aviation incidents? Get access to AeroInside Insights, unlimited read access and receive the daily newsletter.

Pick your plan and subscribe

Partner

Blockaviation logo

A new way to document and demonstrate airworthiness compliance and aircraft value. Find out more.

Virtual Speech logo

Train yourself online in VR with the special course for aviation: "Crisis Communications: Airlines". Find out more.

Get updates

Never miss an article from AeroInside. Subscribe to our free weekly newsletter and join 4859 existing subscribers.

By subscribing, you accept our terms and conditions and that you've read our privacy policy.

AeroInside Blog
Popular aircraft
Airbus A320
Boeing 737-800
Boeing 737-800 MAX
Popular airlines
American Airlines
United
Delta
Air Canada
Lufthansa
British Airways